INFORMACIÓN METAR y TAF
METAR FOR GCFV
ADDS - METARS form results

(1756 UTC 03 June 2020)
Data provider http://aviationweather.gov/metar/data/
 
METAR text: GCFV 031730Z 11005KT 070V150 9999 FEW035 24/21 Q1013
Conditions at: GCFV (FUERTEVENTURA AR, ES) observed 1730 UTC 03 June 2020
Temperature: 24.0°C (75°F)
Dewpoint: 21.0°C (70°F) [RH = 83%]
Pressure (altimeter): 29.91 inches Hg (1013.0 mb)
Winds: from the ESE (110 degrees) at 6 MPH (5 knots; 2.6 m/s)
Visibility: 6 or more miles (10+ km)
Ceiling: at least 12,000 feet AGL
Clouds: few clouds at 3500 feet AGL
Weather: no significant weather observed at this time

METAR text: GCFV 031700Z 09006KT 050V130 9999 FEW035 25/21 Q1013
Conditions at: GCFV (FUERTEVENTURA AR, ES) observed 1700 UTC 03 June 2020
Temperature: 25.0°C (77°F)
Dewpoint: 21.0°C (70°F) [RH = 79%]
Pressure (altimeter): 29.91 inches Hg (1013.0 mb)
Winds: from the E (90 degrees) at 7 MPH (6 knots; 3.1 m/s)
Visibility: 6 or more miles (10+ km)
Ceiling: at least 12,000 feet AGL
Clouds: few clouds at 3500 feet AGL
Weather: no significant weather observed at this time

Forecast for: AMD
Text: TAF AMD GCFV 031552Z 0315/0415 09010KT 9999 SCT025 TX27/0414Z TN21/0406Z
Forecast period: 1500 to 2000 UTC 03 June 2020
Forecast type: FROM: standard forecast or significant change
Winds: from the E (90 degrees) at 12 MPH (10 knots; 5.1 m/s)
Visibility: 6 or more miles 10+ km)
Ceiling: at least 12,000 feet AGL
Clouds: scattered clouds at 2500 feet AGL
Weather: no significant weather forecast for this period
Text: BECMG 0320/0322 31008KT
Forecast period: 2000 UTC 03 June 2020 to 0900 UTC 04 June 2020
Forecast type: BECOMING: Conditions expected to become as follows by 2200 UTC 03 June 2020
Winds: from the NW (310 degrees) at 9 MPH (8 knots; 4.1 m/s)
Visibility: 6 or more miles 10+ km)
Ceiling: at least 12,000 feet AGL
Clouds: scattered clouds at 2500 feet AGL
Weather: no significant weather forecast for this period
Text: BECMG 0409/0411 13010KT
Forecast period: 0900 to 1500 UTC 04 June 2020
Forecast type: BECOMING: Conditions expected to become as follows by 1100 UTC 04 June 2020
Winds: from the SE (130 degrees) at 12 MPH (10 knots; 5.1 m/s)
Visibility: 6 or more miles 10+ km)
Ceiling: at least 12,000 feet AGL
Clouds: scattered clouds at 2500 feet AGL
Weather: no significant weather forecast for this period

MAPA DE AEROPUERTO

INFORMACIÓN DE PISTA
Pista 01 Longitud 7874 ft Ancho 148 ft
Elevación 37 ft Umbral desplazado 0 ft Rumbo de pista 2
Pista 19 Longitud 7874 ft Ancho 148 ft
Elevación 75 ft Umbral desplazado 0 ft Rumbo de pista 182

FRECUANCIAS DEL AEROPUERTO
Tipo APP Nombre CANARIAS A Frecuencia 129.3 MHZ
Tipo ATIS Nombre ATIS Frecuencia 118.65 MHZ
Tipo GND Nombre GND Frecuencia 121.7 MHZ
Tipo TWR Nombre TWR Frecuencia 118.5 MHZ

RADIO AYUDAS DEL AEROPUERTO
Tipo VOR-DME Nombre Fuerteventura Frecuencia 114100 KHZ